Time;durP1;ratioP1;P1;durP2;ratioP2;P2;SDS_P1;SDS_P2;PMS_P1;PMS_P2;Temp;Humidity;BMP_temperature;BMP_pressure;BME280_temperature;BME280_humidity;BME280_pressure;Samples;Min_cycle;Max_cycle;Signal;HPM_P1;HPM_P2
2023/04/30 00:00:59;;;;;;;2.20;0.77;;;7.80;99.90;;;;;;5010410;28;20486;-86
2023/04/30 00:03:25;;;;;;;1.77;0.95;;;7.80;99.90;;;;;;5010840;28;20018;-87
2023/04/30 00:05:50;;;;;;;2.67;0.70;;;7.80;99.90;;;;;;4993626;28;20050;-86
2023/04/30 00:08:16;;;;;;;3.22;1.02;;;7.70;99.90;;;;;;4994518;28;20033;-87
2023/04/30 00:10:42;;;;;;;3.05;1.17;;;7.70;99.90;;;;;;5010036;28;20030;-86
2023/04/30 00:13:09;;;;;;;3.72;0.98;;;7.60;99.90;;;;;;5006258;28;20418;-87
2023/04/30 00:15:35;;;;;;;3.45;0.90;;;7.60;99.90;;;;;;5010834;28;20034;-87
2023/04/30 00:18:01;;;;;;;3.53;1.00;;;7.60;99.90;;;;;;4991098;28;20117;-86
2023/04/30 00:20:27;;;;;;;2.75;1.10;;;7.50;99.90;;;;;;5009778;28;20096;-87
2023/04/30 00:22:52;;;;;;;2.63;0.90;;;7.40;99.90;;;;;;4991326;28;20037;-87
2023/04/30 00:25:19;;;;;;;2.92;1.00;;;7.40;99.90;;;;;;5000878;28;20049;-87
2023/04/30 00:27:45;;;;;;;3.25;1.20;;;7.40;99.90;;;;;;4993175;28;20030;-87
2023/04/30 00:30:11;;;;;;;2.60;0.90;;;7.30;99.90;;;;;;4988827;28;20363;-87
2023/04/30 00:32:37;;;;;;;2.67;1.10;;;7.20;99.90;;;;;;5003957;28;20140;-87
2023/04/30 00:35:04;;;;;;;2.22;0.90;;;7.20;99.90;;;;;;4985935;28;20122;-87
2023/04/30 00:37:31;;;;;;;2.22;1.10;;;7.10;99.90;;;;;;5006378;28;20036;-86
2023/04/30 00:39:59;;;;;;;2.40;1.10;;;7.10;99.90;;;;;;5008090;28;20047;-87
2023/04/30 00:42:25;;;;;;;2.20;1.10;;;7.00;99.90;;;;;;5010105;28;20109;-87
2023/04/30 00:44:50;;;;;;;3.95;1.30;;;7.00;99.90;;;;;;5010835;28;20057;-87
2023/04/30 00:47:18;;;;;;;2.20;1.00;;;7.00;99.90;;;;;;4995910;28;20475;-87
2023/04/30 00:49:48;;;;;;;3.47;1.42;;;7.00;99.90;;;;;;4993515;28;20851;-87
2023/04/30 00:52:16;;;;;;;2.17;1.08;;;7.00;99.90;;;;;;4996234;28;20052;-87
2023/04/30 00:54:43;;;;;;;1.90;0.80;;;6.80;99.90;;;;;;5007994;28;20068;-87
2023/04/30 00:57:13;;;;;;;2.10;1.05;;;6.80;99.90;;;;;;5009082;28;20030;-87
2023/04/30 00:59:41;;;;;;;1.77;0.70;;;6.80;99.90;;;;;;4994317;28;20033;-87
2023/04/30 01:02:10;;;;;;;3.47;1.20;;;6.80;99.90;;;;;;4995566;28;20056;-87
2023/04/30 01:04:37;;;;;;;2.20;1.10;;;6.70;99.90;;;;;;4990475;28;20022;-87
2023/04/30 01:07:05;;;;;;;3.90;1.10;;;6.70;99.90;;;;;;5009040;28;20176;-88
2023/04/30 01:09:33;;;;;;;3.40;1.13;;;6.60;99.90;;;;;;4994018;28;20405;-88
2023/04/30 01:12:20;;;;;;;2.90;0.90;;;6.60;99.90;;;;;;5012219;28;20041;-87
2023/04/30 01:15:04;;;;;;;2.30;1.00;;;6.50;99.90;;;;;;4993565;28;20026;-85
2023/04/30 01:17:39;;;;;;;2.72;1.20;;;6.60;99.90;;;;;;4993519;28;20022;-86
2023/04/30 01:20:10;;;;;;;2.08;0.90;;;6.50;99.90;;;;;;5009870;28;20038;-87
2023/04/30 01:22:54;;;;;;;2.33;0.98;;;6.60;99.90;;;;;;5010791;28;20022;-87
2023/04/30 01:25:43;;;;;;;2.45;0.90;;;6.60;99.90;;;;;;5025198;28;20376;-88
2023/04/30 01:28:16;;;;;;;2.93;1.10;;;6.60;99.90;;;;;;4993670;28;20109;-87
2023/04/30 01:30:46;;;;;;;2.10;0.80;;;6.70;99.90;;;;;;4996532;28;20030;-88
2023/04/30 01:33:12;;;;;;;2.92;1.10;;;6.60;99.90;;;;;;5012097;28;20084;-88
2023/04/30 01:35:47;;;;;;;2.53;0.90;;;6.60;99.90;;;;;;5012661;28;20053;-88
2023/04/30 01:38:38;;;;;;;2.28;0.63;;;6.60;99.90;;;;;;5013393;28;20498;-88
2023/04/30 01:41:37;;;;;;;3.50;0.90;;;6.60;99.90;;;;;;4996321;28;20045;-88
2023/04/30 01:44:13;;;;;;;;;;;6.50;99.90;;;;;;4991048;28;20544;-88
2023/04/30 01:46:42;;;;;;;2.15;0.70;;;6.50;99.90;;;;;;4995986;28;19909;-88
2023/04/30 01:49:31;;;;;;;3.63;1.20;;;6.50;99.90;;;;;;5012842;28;20025;-88
2023/04/30 01:52:20;;;;;;;3.17;1.37;;;6.40;99.90;;;;;;5027666;28;20044;-87
2023/04/30 01:55:04;;;;;;;2.50;1.00;;;6.20;99.90;;;;;;5026450;28;20036;-86
2023/04/30 01:57:44;;;;;;;2.67;1.00;;;6.20;99.90;;;;;;5004717;28;20025;-86
2023/04/30 02:00:11;;;;;;;2.53;1.35;;;6.20;99.90;;;;;;5011730;28;20037;-86
2023/04/30 02:02:41;;;;;;;3.10;1.23;;;6.10;99.90;;;;;;5012521;28;20037;-89
2023/04/30 02:05:08;;;;;;;3.25;1.10;;;6.10;99.90;;;;;;4996220;28;20030;-87
2023/04/30 02:07:39;;;;;;;2.50;1.40;;;6.00;99.90;;;;;;4991951;28;20034;-87
2023/04/30 02:10:08;;;;;;;2.95;1.27;;;5.90;99.90;;;;;;5012978;28;20058;-87
2023/04/30 02:12:34;;;;;;;2.55;1.00;;;6.00;99.90;;;;;;5011515;28;20037;-87
2023/04/30 02:15:01;;;;;;;2.38;1.13;;;6.10;99.90;;;;;;4994252;28;20093;-87
2023/04/30 02:17:27;;;;;;;2.25;1.15;;;6.00;99.90;;;;;;4994616;28;20034;-87
2023/04/30 02:19:53;;;;;;;2.78;1.02;;;6.00;99.90;;;;;;5008785;28;20490;-87
2023/04/30 02:22:18;;;;;;;3.85;1.30;;;5.90;99.90;;;;;;5007107;28;20022;-87
2023/04/30 02:24:44;;;;;;;2.78;1.20;;;6.00;99.90;;;;;;5009875;28;20033;-87
2023/04/30 02:27:10;;;;;;;3.35;1.85;;;5.90;99.90;;;;;;5009066;28;20022;-87
2023/04/30 02:29:36;;;;;;;4.10;1.15;;;5.80;99.90;;;;;;5012590;28;20038;-86
2023/04/30 02:32:01;;;;;;;1.98;0.90;;;5.80;99.90;;;;;;5011955;28;20026;-87
2023/04/30 02:34:27;;;;;;;2.92;1.48;;;5.90;99.90;;;;;;5005682;28;20596;-87
2023/04/30 02:36:53;;;;;;;2.88;1.30;;;5.80;99.90;;;;;;4997475;28;20034;-87
2023/04/30 02:39:18;;;;;;;3.17;1.27;;;5.80;99.90;;;;;;5006508;28;20101;-87
2023/04/30 02:41:44;;;;;;;2.83;1.63;;;5.90;99.90;;;;;;5012110;28;20033;-87
2023/04/30 02:44:11;;;;;;;3.17;1.55;;;5.90;99.90;;;;;;5013606;28;20203;-87
2023/04/30 02:46:36;;;;;;;3.65;1.40;;;5.90;99.90;;;;;;5030205;28;20191;-87
2023/04/30 02:49:02;;;;;;;2.95;1.30;;;5.90;99.90;;;;;;5029588;28;20083;-87
2023/04/30 02:51:28;;;;;;;2.60;1.25;;;5.90;99.90;;;;;;5031113;28;21535;-87
2023/04/30 02:53:53;;;;;;;2.45;1.20;;;5.90;99.90;;;;;;5014738;28;20033;-87
2023/04/30 02:56:20;;;;;;;2.63;1.30;;;5.90;99.90;;;;;;5012327;28;20028;-86
2023/04/30 02:58:46;;;;;;;2.30;1.10;;;5.90;99.90;;;;;;5006566;28;20053;-87
2023/04/30 03:01:12;;;;;;;3.25;1.52;;;5.90;99.90;;;;;;5026267;28;20447;-87
2023/04/30 03:03:38;;;;;;;4.15;1.45;;;5.90;99.90;;;;;;5014653;28;20752;-87
2023/04/30 03:06:04;;;;;;;3.25;1.75;;;5.90;99.90;;;;;;5030481;28;20087;-87
2023/04/30 03:08:30;;;;;;;3.60;1.27;;;5.90;99.90;;;;;;5040118;28;20052;-87
2023/04/30 03:10:56;;;;;;;4.45;2.05;;;5.90;99.90;;;;;;5030399;28;20036;-87
2023/04/30 03:13:24;;;;;;;2.53;1.60;;;6.00;99.90;;;;;;5032007;28;20034;-87
2023/04/30 03:15:57;;;;;;;2.90;1.73;;;5.90;99.90;;;;;;5029268;28;20033;-87
2023/04/30 03:18:22;;;;;;;3.42;1.92;;;5.90;99.90;;;;;;5009164;28;20116;-87
2023/04/30 03:20:48;;;;;;;3.70;1.58;;;5.90;99.90;;;;;;5030891;28;20132;-87
2023/04/30 03:23:14;;;;;;;3.58;1.65;;;5.90;99.90;;;;;;5013918;28;20026;-87
2023/04/30 03:25:39;;;;;;;2.95;1.52;;;5.80;99.90;;;;;;5028293;28;20044;-87
2023/04/30 03:28:05;;;;;;;2.80;1.30;;;5.80;99.90;;;;;;5013430;28;20025;-87
2023/04/30 03:30:31;;;;;;;2.88;1.90;;;5.80;99.90;;;;;;5028991;28;20069;-87
2023/04/30 03:32:56;;;;;;;4.80;1.90;;;5.80;99.90;;;;;;5029942;28;20023;-87
2023/04/30 03:35:22;;;;;;;5.00;1.75;;;5.80;99.90;;;;;;5011909;28;20081;-86
2023/04/30 03:37:48;;;;;;;4.38;1.55;;;5.70;99.90;;;;;;5028956;28;20087;-87
2023/04/30 03:40:13;;;;;;;2.63;1.38;;;5.70;99.90;;;;;;5028960;28;20036;-87
2023/04/30 03:42:40;;;;;;;2.55;1.38;;;5.70;99.90;;;;;;5013995;28;20024;-86
2023/04/30 03:45:06;;;;;;;2.97;1.52;;;5.70;99.90;;;;;;5028582;28;20144;-86
2023/04/30 03:47:32;;;;;;;5.93;2.00;;;5.70;99.90;;;;;;5029171;28;20413;-87
2023/04/30 03:49:58;;;;;;;2.10;1.23;;;5.70;99.90;;;;;;5013492;28;20124;-87
2023/04/30 03:52:25;;;;;;;3.65;1.80;;;5.60;99.90;;;;;;5028208;28;20657;-87
2023/04/30 03:54:51;;;;;;;4.20;1.88;;;5.70;99.90;;;;;;5012625;28;20026;-87
2023/04/30 03:57:18;;;;;;;2.95;1.40;;;5.60;99.90;;;;;;5029468;28;20164;-87
2023/04/30 03:59:44;;;;;;;3.60;1.52;;;5.60;99.90;;;;;;5029388;28;20025;-88
2023/04/30 04:02:10;;;;;;;3.25;1.92;;;5.60;99.90;;;;;;5011366;28;20033;-87
2023/04/30 04:04:35;;;;;;;3.20;1.70;;;5.60;99.90;;;;;;5027652;28;20392;-87
2023/04/30 04:07:02;;;;;;;2.90;1.50;;;5.60;99.90;;;;;;5011717;28;20037;-87
2023/04/30 04:09:28;;;;;;;2.97;1.90;;;5.60;99.90;;;;;;5029511;28;20039;-87
2023/04/30 04:11:54;;;;;;;3.42;1.67;;;5.50;99.90;;;;;;5011874;28;20104;-87
2023/04/30 04:14:20;;;;;;;3.75;1.77;;;5.50;99.90;;;;;;5010552;28;20068;-88
2023/04/30 04:16:46;;;;;;;2.40;1.17;;;5.50;99.90;;;;;;5027004;28;20133;-87
2023/04/30 04:19:12;;;;;;;2.72;1.35;;;5.50;99.90;;;;;;5030118;28;22157;-88
2023/04/30 04:21:38;;;;;;;3.20;1.65;;;5.50;99.90;;;;;;5014963;28;20120;-87
2023/04/30 04:24:09;;;;;;;2.80;1.40;;;5.50;99.90;;;;;;5049460;28;20447;-88
2023/04/30 04:26:36;;;;;;;3.55;1.88;;;5.50;99.90;;;;;;5014757;28;20120;-87
2023/04/30 04:29:07;;;;;;;2.90;1.40;;;5.50;99.90;;;;;;5033300;28;20022;-87
2023/04/30 04:31:33;;;;;;;3.50;2.10;;;5.50;99.90;;;;;;5016331;28;20485;-87
2023/04/30 04:34:01;;;;;;;2.60;1.67;;;5.60;99.90;;;;;;5049647;28;20160;-88
2023/04/30 04:36:27;;;;;;;3.75;1.65;;;5.50;99.90;;;;;;5014853;28;20030;-87
2023/04/30 04:38:56;;;;;;;3.20;1.63;;;5.60;99.90;;;;;;5032907;28;20037;-87
2023/04/30 04:41:23;;;;;;;3.28;1.83;;;5.60;99.90;;;;;;5028972;28;20037;-88
2023/04/30 04:43:50;;;;;;;3.63;1.80;;;5.50;99.90;;;;;;5029037;28;20473;-87
2023/04/30 04:46:16;;;;;;;2.95;1.60;;;5.50;99.90;;;;;;5031216;28;20083;-87
2023/04/30 04:48:42;;;;;;;2.60;1.50;;;5.50;99.90;;;;;;5033088;28;20033;-87
2023/04/30 04:51:09;;;;;;;2.85;1.85;;;5.60;99.90;;;;;;5033431;28;20378;-87
2023/04/30 04:53:35;;;;;;;3.35;1.73;;;5.60;99.90;;;;;;5030665;28;20116;-88
2023/04/30 04:56:01;;;;;;;2.70;1.30;;;5.60;99.90;;;;;;5032561;28;20526;-87
2023/04/30 04:58:27;;;;;;;2.88;1.65;;;5.70;99.90;;;;;;5032451;28;20041;-86
2023/04/30 05:00:53;;;;;;;3.10;1.52;;;5.70;99.90;;;;;;5015913;28;20088;-87
2023/04/30 05:03:19;;;;;;;3.28;1.63;;;5.70;99.90;;;;;;5030237;28;20024;-87
2023/04/30 05:05:45;;;;;;;3.22;1.83;;;5.80;99.90;;;;;;5029174;28;20030;-87
2023/04/30 05:08:11;;;;;;;4.63;1.70;;;5.90;99.90;;;;;;5016058;28;20041;-87
2023/04/30 05:10:37;;;;;;;2.25;1.38;;;5.90;99.90;;;;;;5049200;28;20792;-86
2023/04/30 05:13:03;;;;;;;2.78;1.30;;;6.00;99.90;;;;;;5030940;28;20026;-87
2023/04/30 05:15:29;;;;;;;3.25;1.60;;;6.00;99.90;;;;;;5019155;28;20056;-88
2023/04/30 05:17:55;;;;;;;2.85;1.17;;;6.00;99.90;;;;;;5013973;28;20029;-87
2023/04/30 05:20:21;;;;;;;3.63;1.70;;;6.10;99.90;;;;;;5049224;28;20313;-87
2023/04/30 05:22:46;;;;;;;4.38;2.28;;;6.20;99.90;;;;;;5015595;28;20039;-87
2023/04/30 05:25:12;;;;;;;3.15;2.15;;;6.20;99.90;;;;;;5016058;28;20029;-87
2023/04/30 05:27:38;;;;;;;3.47;2.42;;;6.30;99.90;;;;;;5032036;28;20034;-87
2023/04/30 05:30:04;;;;;;;5.30;2.63;;;6.30;99.90;;;;;;5032417;28;20048;-87
2023/04/30 05:32:30;;;;;;;3.60;1.88;;;6.40;99.90;;;;;;5047416;28;20022;-87
2023/04/30 05:34:57;;;;;;;4.38;2.10;;;6.40;99.90;;;;;;5032226;28;20025;-92
2023/04/30 05:37:23;;;;;;;3.03;1.80;;;6.50;99.90;;;;;;5031998;28;20037;-88
2023/04/30 05:39:49;;;;;;;3.50;1.98;;;6.60;99.90;;;;;;5020629;28;20136;-88
2023/04/30 05:42:14;;;;;;;3.22;2.40;;;6.60;99.90;;;;;;5025464;28;20054;-88
2023/04/30 05:44:40;;;;;;;4.93;2.40;;;6.70;99.90;;;;;;5031465;28;20051;-88
2023/04/30 05:47:06;;;;;;;2.92;2.05;;;6.70;99.90;;;;;;5014121;28;20465;-88
2023/04/30 05:49:32;;;;;;;3.60;2.08;;;6.80;99.90;;;;;;5014008;28;20104;-88
2023/04/30 05:51:58;;;;;;;4.07;1.95;;;6.90;99.90;;;;;;5028376;28;20056;-88
2023/04/30 05:54:23;;;;;;;5.68;2.58;;;7.00;99.90;;;;;;5032114;28;20032;-87
2023/04/30 05:56:49;;;;;;;3.13;2.30;;;7.10;99.90;;;;;;5015433;28;20120;-86
2023/04/30 05:59:15;;;;;;;3.00;1.60;;;7.20;99.90;;;;;;5029567;28;20033;-87
2023/04/30 06:01:41;;;;;;;3.40;2.35;;;7.30;99.90;;;;;;5048653;28;20033;-88
2023/04/30 06:04:08;;;;;;;5.10;2.58;;;7.40;99.90;;;;;;5028246;28;20033;-88
2023/04/30 06:06:33;;;;;;;2.83;1.35;;;7.50;99.90;;;;;;5029156;28;20030;-88
2023/04/30 06:08:59;;;;;;;5.15;2.55;;;7.60;99.90;;;;;;5031800;28;20160;-87
2023/04/30 06:11:25;;;;;;;3.28;1.83;;;7.80;99.90;;;;;;5030867;28;20041;-88
2023/04/30 06:13:55;;;;;;;3.03;2.50;;;7.90;99.90;;;;;;5028877;28;20466;-88
2023/04/30 06:16:21;;;;;;;3.88;3.35;;;8.10;99.90;;;;;;5026260;28;20088;-88
2023/04/30 06:18:46;;;;;;;4.35;2.70;;;8.20;99.90;;;;;;5027405;28;20768;-89
2023/04/30 06:21:12;;;;;;;4.03;2.20;;;8.30;99.90;;;;;;5026949;28;20419;-88
2023/04/30 06:23:38;;;;;;;4.38;2.58;;;8.50;99.90;;;;;;5030164;28;20413;-88
2023/04/30 06:26:06;;;;;;;4.57;2.17;;;8.80;99.90;;;;;;5046105;28;20044;-86
2023/04/30 06:28:31;;;;;;;3.63;2.28;;;8.90;99.90;;;;;;5045846;28;20030;-88
2023/04/30 06:30:57;;;;;;;2.67;1.90;;;9.10;99.90;;;;;;5027994;28;20450;-88
2023/04/30 06:33:23;;;;;;;2.85;1.67;;;9.40;99.90;;;;;;5029430;28;20087;-88
2023/04/30 06:35:53;;;;;;;3.72;1.30;;;9.60;99.90;;;;;;5028965;28;20036;-88
2023/04/30 06:38:19;;;;;;;2.60;1.50;;;9.90;99.90;;;;;;5003650;28;20457;-89
2023/04/30 06:40:44;;;;;;;2.97;1.25;;;10.10;99.90;;;;;;5001634;28;20046;-89
2023/04/30 06:43:10;;;;;;;4.88;1.30;;;10.10;99.90;;;;;;5026454;28;20029;-89
2023/04/30 06:45:37;;;;;;;2.28;1.38;;;10.40;99.90;;;;;;5005407;28;20072;-87
2023/04/30 06:48:03;;;;;;;2.50;0.80;;;10.40;99.90;;;;;;5004321;28;20045;-89
2023/04/30 06:50:28;;;;;;;2.58;1.00;;;10.60;99.90;;;;;;5023642;28;20026;-88
2023/04/30 06:52:54;;;;;;;1.80;0.80;;;10.80;99.90;;;;;;5007906;28;20173;-88
2023/04/30 06:55:20;;;;;;;1.73;1.00;;;10.80;99.90;;;;;;5008588;28;20526;-88
2023/04/30 06:57:46;;;;;;;2.15;1.30;;;10.90;99.90;;;;;;5006591;28;20252;-89
2023/04/30 07:00:14;;;;;;;2.55;1.05;;;11.00;99.90;;;;;;5008515;28;20033;-87
2023/04/30 07:02:40;;;;;;;3.22;1.05;;;11.30;99.90;;;;;;5008433;28;20021;-88
2023/04/30 07:05:06;;;;;;;2.38;1.02;;;11.30;99.90;;;;;;5019741;28;20087;-88
2023/04/30 07:07:32;;;;;;;2.40;1.02;;;11.50;99.90;;;;;;5003168;28;20124;-87
2023/04/30 07:09:58;;;;;;;3.33;1.35;;;11.70;99.90;;;;;;5025511;28;20099;-87
2023/04/30 07:12:23;;;;;;;4.65;1.20;;;11.70;99.90;;;;;;5023838;28;20057;-88
2023/04/30 07:14:49;;;;;;;2.60;1.00;;;11.70;99.90;;;;;;5001948;28;20021;-88
2023/04/30 07:17:15;;;;;;;4.80;1.10;;;12.00;99.90;;;;;;5041302;28;20527;-88
2023/04/30 07:19:41;;;;;;;3.72;1.55;;;12.10;99.90;;;;;;5000868;28;20120;-88
2023/04/30 07:22:06;;;;;;;5.13;1.60;;;12.20;99.90;;;;;;5025410;28;20548;-88
2023/04/30 07:24:33;;;;;;;3.10;0.95;;;12.20;99.90;;;;;;5024971;28;20512;-88
2023/04/30 07:27:01;;;;;;;2.55;1.10;;;12.30;99.90;;;;;;5023089;28;20044;-88
2023/04/30 07:29:28;;;;;;;1.92;0.70;;;12.40;99.90;;;;;;5005888;28;20064;-88
2023/04/30 07:31:55;;;;;;;3.17;0.90;;;12.50;99.90;;;;;;5008408;28;20036;-87
2023/04/30 07:34:20;;;;;;;3.03;1.10;;;12.60;99.90;;;;;;5010967;28;20029;-88
2023/04/30 07:36:47;;;;;;;2.33;0.90;;;12.50;99.90;;;;;;5022673;28;20375;-88
2023/04/30 07:39:13;;;;;;;3.95;1.08;;;12.40;99.90;;;;;;5003946;28;20091;-88
2023/04/30 07:41:39;;;;;;;2.45;1.05;;;12.40;99.90;;;;;;5023820;28;20128;-87
2023/04/30 07:44:05;;;;;;;3.63;0.98;;;12.70;99.90;;;;;;5003055;28;20105;-87
2023/04/30 07:46:31;;;;;;;2.97;1.30;;;12.80;99.90;;;;;;5001449;28;20093;-88
2023/04/30 07:48:58;;;;;;;3.53;1.20;;;12.90;99.90;;;;;;5019475;28;20079;-88
2023/04/30 07:51:23;;;;;;;2.83;1.10;;;13.10;99.90;;;;;;5018768;28;20128;-88
2023/04/30 07:53:49;;;;;;;3.13;0.90;;;13.30;99.90;;;;;;4999809;28;20108;-89
2023/04/30 07:56:15;;;;;;;2.65;1.13;;;13.40;99.90;;;;;;5005520;28;20018;-88
2023/04/30 07:58:40;;;;;;;2.35;0.95;;;13.40;99.90;;;;;;5021733;28;20451;-88
2023/04/30 08:01:06;;;;;;;2.78;1.10;;;13.70;99.90;;;;;;5022322;28;20099;-89
2023/04/30 08:03:32;;;;;;;1.85;0.80;;;13.50;99.90;;;;;;5005925;28;20021;-88
2023/04/30 08:05:58;;;;;;;2.63;1.00;;;13.80;99.90;;;;;;5023664;28;20048;-89
2023/04/30 08:08:23;;;;;;;4.18;1.20;;;13.70;99.90;;;;;;5002280;28;20041;-88
2023/04/30 08:10:49;;;;;;;2.88;1.05;;;14.20;99.90;;;;;;5003928;28;20059;-88
2023/04/30 08:13:19;;;;;;;3.08;1.08;;;14.20;99.90;;;;;;5023343;28;20045;-88
2023/04/30 08:15:45;;;;;;;2.63;1.17;;;14.20;99.90;;;;;;5025552;28;20096;-88
2023/04/30 08:18:10;;;;;;;2.25;1.00;;;13.90;99.90;;;;;;5005497;28;20437;-88
2023/04/30 08:20:36;;;;;;;3.78;1.33;;;14.10;99.90;;;;;;5040421;28;20038;-88
2023/04/30 08:23:04;;;;;;;2.72;0.80;;;14.10;99.90;;;;;;5017333;28;20245;-88
2023/04/30 08:25:30;;;;;;;2.63;0.90;;;14.40;99.90;;;;;;5008529;28;20030;-89
2023/04/30 08:27:56;;;;;;;2.70;0.95;;;14.70;99.90;;;;;;5025666;28;20060;-90
2023/04/30 08:30:22;;;;;;;3.90;1.75;;;14.70;99.90;;;;;;5009000;28;20478;-89
2023/04/30 08:32:48;;;;;;;2.75;0.80;;;14.60;99.90;;;;;;5025288;28;20037;-89
2023/04/30 08:35:15;;;;;;;3.35;1.15;;;14.40;99.90;;;;;;5043985;28;20117;-89
2023/04/30 08:37:41;;;;;;;1.90;0.80;;;14.60;99.90;;;;;;5012616;28;20022;-90
2023/04/30 08:40:08;;;;;;;2.88;0.80;;;15.00;99.90;;;;;;5026902;28;20155;-89
2023/04/30 08:42:36;;;;;;;1.90;0.60;;;15.00;99.90;;;;;;5026389;28;20026;-89
2023/04/30 08:45:03;;;;;;;1.80;0.65;;;15.40;99.90;;;;;;5009998;28;20050;-89
2023/04/30 08:47:30;;;;;;;1.63;0.70;;;15.20;99.90;;;;;;5009105;28;20026;-90
2023/04/30 08:49:55;;;;;;;2.78;0.60;;;15.40;99.90;;;;;;5006180;28;20032;-89
2023/04/30 08:52:21;;;;;;;3.28;1.95;;;15.30;99.90;;;;;;5010187;28;20026;-89
2023/04/30 08:54:49;;;;;;;2.00;0.80;;;14.50;99.90;;;;;;5007235;28;20260;-89
2023/04/30 08:57:15;;;;;;;3.53;1.15;;;15.10;99.90;;;;;;5003299;28;20033;-90
2023/04/30 08:59:45;;;;;;;1.83;0.98;;;15.20;99.90;;;;;;5011531;28;20038;-91
2023/04/30 09:02:10;;;;;;;2.15;0.60;;;15.40;99.90;;;;;;5042261;28;20036;-90
2023/04/30 09:04:36;;;;;;;2.45;0.70;;;15.60;99.90;;;;;;5026549;28;20026;-90
2023/04/30 09:07:03;;;;;;;1.90;0.73;;;15.60;99.90;;;;;;5042657;28;20041;-91
2023/04/30 09:09:36;;;;;;;2.65;0.90;;;15.50;99.90;;;;;;5014205;28;20025;-90
2023/04/30 09:12:17;;;;;;;2.05;0.60;;;15.30;99.90;;;;;;5031184;28;20117;-90
2023/04/30 09:15:02;;;;;;;1.77;0.60;;;15.60;99.90;;;;;;5030329;28;20060;-91
2023/04/30 09:17:31;;;;;;;1.40;0.60;;;16.10;99.90;;;;;;5031187;28;20470;-91
2023/04/30 09:20:07;;;;;;;1.23;0.55;;;16.10;99.90;;;;;;5013642;28;20551;-90
2023/04/30 09:22:34;;;;;;;1.95;0.60;;;16.20;99.90;;;;;;5012968;28;20048;-90
2023/04/30 09:25:00;;;;;;;3.17;0.77;;;16.10;99.90;;;;;;5012259;28;20496;-90
2023/04/30 09:27:26;;;;;;;2.78;0.60;;;16.00;99.90;;;;;;5010686;28;20021;-90
2023/04/30 09:29:52;;;;;;;1.50;0.60;;;16.30;99.90;;;;;;5029622;28;20709;-91
2023/04/30 09:32:18;;;;;;;2.70;0.75;;;16.30;99.90;;;;;;5045821;28;20039;-90
2023/04/30 09:34:43;;;;;;;1.90;0.57;;;16.20;99.90;;;;;;5007804;28;20445;-91
2023/04/30 09:37:10;;;;;;;3.00;0.60;;;16.40;99.90;;;;;;5031196;28;20022;-91
2023/04/30 09:39:55;;;;;;;1.95;0.80;;;16.50;99.90;;;;;;5012774;28;20041;-90
2023/04/30 09:42:21;;;;;;;2.00;0.50;;;16.60;99.90;;;;;;5025658;28;20199;-90
2023/04/30 09:44:47;;;;;;;2.03;0.50;;;16.90;99.90;;;;;;5029208;28;20466;-90
2023/04/30 09:47:18;;;;;;;1.77;0.80;;;16.90;99.90;;;;;;5008511;28;20033;-91
2023/04/30 09:49:52;;;;;;;1.00;0.50;;;16.90;99.90;;;;;;5026659;28;20690;-90
2023/04/30 09:52:19;;;;;;;2.10;0.40;;;17.00;99.90;;;;;;5012443;28;20045;-89
2023/04/30 09:54:46;;;;;;;1.20;0.40;;;17.10;99.90;;;;;;5014872;28;20120;-90
2023/04/30 09:57:16;;;;;;;1.85;0.60;;;17.10;99.90;;;;;;5007820;28;20382;-90
2023/04/30 09:59:44;;;;;;;1.88;0.50;;;17.00;99.90;;;;;;5010785;28;20052;-90
2023/04/30 10:02:15;;;;;;;1.20;0.50;;;17.00;99.90;;;;;;5015438;28;20025;-89
2023/04/30 10:04:47;;;;;;;2.53;0.60;;;17.00;99.90;;;;;;5014658;28;20113;-89
2023/04/30 10:07:19;;;;;;;1.70;0.60;;;16.90;99.90;;;;;;5012433;28;20042;-89
2023/04/30 10:09:50;;;;;;;2.08;0.50;;;16.90;99.90;;;;;;5013537;28;20029;-90
2023/04/30 10:12:23;;;;;;;1.48;0.60;;;17.00;99.90;;;;;;5028911;28;20033;-90
2023/04/30 10:15:04;;;;;;;2.40;0.63;;;17.40;99.90;;;;;;5008065;28;20025;-90
2023/04/30 10:17:39;;;;;;;1.90;0.60;;;17.40;99.90;;;;;;5008438;28;20069;-91
2023/04/30 10:20:08;;;;;;;1.23;0.55;;;17.20;99.90;;;;;;5028792;28;20025;-90
2023/04/30 10:22:34;;;;;;;2.25;0.63;;;17.50;99.90;;;;;;5013231;28;20033;-90
2023/04/30 10:25:01;;;;;;;2.10;0.50;;;17.10;99.90;;;;;;5025368;28;20021;-90
2023/04/30 10:27:29;;;;;;;1.45;0.50;;;17.10;99.90;;;;;;5020960;28;20030;-91
2023/04/30 10:29:56;;;;;;;1.38;0.47;;;17.20;99.90;;;;;;5026562;28;20094;-93
2023/04/30 10:32:22;;;;;;;1.80;0.57;;;17.80;99.90;;;;;;5027707;28;20055;-91
2023/04/30 10:34:57;;;;;;;1.70;0.45;;;17.70;99.90;;;;;;5026410;28;20132;-92
2023/04/30 10:38:11;;;;;;;2.28;0.60;;;17.70;99.90;;;;;;5011917;28;20029;-91
2023/04/30 10:40:37;;;;;;;1.80;0.60;;;17.80;99.90;;;;;;4932713;29;20591;-90
2023/04/30 10:43:03;;;;;;;2.78;0.82;;;17.50;99.90;;;;;;4915520;28;20122;-91
2023/04/30 10:45:41;;;;;;;0.88;0.43;;;17.40;99.90;;;;;;4933838;29;20102;-91
2023/04/30 10:48:07;;;;;;;1.95;0.68;;;17.50;99.90;;;;;;4933390;29;20023;-91
2023/04/30 10:50:39;;;;;;;1.77;0.90;;;17.50;99.90;;;;;;4917747;28;20039;-90
2023/04/30 10:53:05;;;;;;;2.22;0.55;;;17.70;99.90;;;;;;4934613;29;20449;-91
2023/04/30 10:55:32;;;;;;;2.03;0.60;;;18.20;99.90;;;;;;4924777;29;20032;-90
2023/04/30 10:57:58;;;;;;;2.33;0.60;;;18.00;99.90;;;;;;4949269;28;20190;-91
2023/04/30 11:00:26;;;;;;;1.48;0.60;;;18.30;99.90;;;;;;4931766;29;20043;-90
2023/04/30 11:03:02;;;;;;;1.25;0.40;;;18.30;99.90;;;;;;4932006;29;20534;-91
2023/04/30 11:05:37;;;;;;;1.20;0.50;;;18.00;99.90;;;;;;4916797;29;20089;-88
2023/04/30 11:08:03;;;;;;;1.50;0.50;;;18.30;99.90;;;;;;4916242;29;20043;-91
2023/04/30 11:10:33;;;;;;;1.33;0.45;;;18.00;99.90;;;;;;4949505;28;20037;-92
2023/04/30 11:13:06;;;;;;;1.02;0.50;;;17.80;99.90;;;;;;5012317;28;20478;-88
2023/04/30 11:15:44;;;;;;;1.00;0.50;;;17.50;99.90;;;;;;5008330;28;20049;-89
2023/04/30 11:18:12;;;;;;;1.65;0.70;;;18.10;99.90;;;;;;5024478;28;20080;-89
2023/04/30 11:20:47;;;;;;;2.55;0.60;;;17.90;99.90;;;;;;5009073;28;20069;-88
2023/04/30 11:23:15;;;;;;;1.70;0.63;;;18.10;99.90;;;;;;5027144;28;20516;-89
2023/04/30 11:25:45;;;;;;;2.00;0.70;;;18.00;99.90;;;;;;5028179;28;20518;-89
2023/04/30 11:28:18;;;;;;;1.95;0.45;;;17.60;99.90;;;;;;5011693;28;20017;-90
2023/04/30 11:30:58;;;;;;;1.73;0.40;;;17.80;99.90;;;;;;5022200;28;20128;-89
2023/04/30 11:33:25;;;;;;;;;;;18.10;99.90;;;;;;5024866;28;20104;-89
2023/04/30 11:35:51;;;;;;;0.70;0.30;;;18.10;99.90;;;;;;5020075;28;19959;-88
2023/04/30 11:38:50;;;;;;;0.93;0.30;;;18.00;99.90;;;;;;5025073;28;20033;-89
2023/04/30 11:41:16;;;;;;;1.10;0.30;;;18.10;99.90;;;;;;4965270;28;20140;-88
2023/04/30 11:43:42;;;;;;;1.60;0.50;;;18.40;99.90;;;;;;5025897;28;20390;-88
2023/04/30 11:46:12;;;;;;;1.38;0.30;;;18.50;99.90;;;;;;5006520;28;20029;-89
2023/04/30 11:48:45;;;;;;;0.70;0.30;;;18.50;99.90;;;;;;5007156;28;20087;-89
2023/04/30 11:51:20;;;;;;;1.63;0.40;;;18.20;99.90;;;;;;5024474;28;20129;-88
2023/04/30 11:53:47;;;;;;;1.00;0.40;;;18.00;99.90;;;;;;5002282;28;20393;-88
2023/04/30 11:56:16;;;;;;;0.98;0.32;;;18.10;99.90;;;;;;5023309;28;20025;-87
2023/04/30 11:58:45;;;;;;;0.63;0.20;;;18.30;99.90;;;;;;5011931;28;20294;-89
2023/04/30 12:01:14;;;;;;;1.05;0.32;;;18.60;99.90;;;;;;5028986;28;20033;-90
2023/04/30 12:03:46;;;;;;;1.42;0.30;;;18.90;99.90;;;;;;5014306;28;20112;-89
2023/04/30 12:06:22;;;;;;;0.50;0.20;;;19.00;99.90;;;;;;5006710;28;20025;-88
2023/04/30 12:08:49;;;;;;;1.35;0.60;;;18.70;99.90;;;;;;5028164;28;20490;-88
2023/04/30 12:11:25;;;;;;;1.50;0.30;;;18.60;99.90;;;;;;5010326;28;20049;-87
2023/04/30 12:14:06;;;;;;;0.55;0.20;;;18.40;99.90;;;;;;5029027;28;20029;-88
2023/04/30 12:16:47;;;;;;;1.20;0.30;;;18.50;99.90;;;;;;5007999;28;20029;-87
2023/04/30 12:19:14;;;;;;;0.73;0.20;;;18.40;99.90;;;;;;5028744;28;20543;-88
2023/04/30 12:21:43;;;;;;;1.23;0.20;;;18.80;99.90;;;;;;5023871;28;20087;-88
2023/04/30 12:24:11;;;;;;;0.60;0.20;;;19.00;99.90;;;;;;5023254;28;20493;-88
2023/04/30 12:26:38;;;;;;;1.25;0.30;;;19.20;99.90;;;;;;5003855;28;20187;-89
2023/04/30 12:29:17;;;;;;;1.83;0.30;;;19.10;99.90;;;;;;5041023;28;20308;-88
2023/04/30 12:31:44;;;;;;;2.45;0.30;;;18.70;99.90;;;;;;5022590;28;20486;-88
2023/04/30 12:34:11;;;;;;;1.52;0.25;;;18.60;99.90;;;;;;5007658;28;20041;-89
2023/04/30 12:36:41;;;;;;;0.55;0.20;;;18.50;99.90;;;;;;5008985;28;20025;-90
2023/04/30 12:39:17;;;;;;;0.90;0.30;;;18.80;99.90;;;;;;5023921;28;20061;-88
2023/04/30 12:41:45;;;;;;;0.82;0.20;;;18.80;99.90;;;;;;5043316;28;20111;-88
2023/04/30 12:44:17;;;;;;;1.10;0.40;;;18.90;99.90;;;;;;5027655;28;20433;-88
2023/04/30 12:46:45;;;;;;;0.90;0.20;;;19.00;99.90;;;;;;5026143;28;20489;-89
2023/04/30 12:49:11;;;;;;;0.32;0.13;;;19.00;99.90;;;;;;5026196;28;20451;-90
2023/04/30 12:51:40;;;;;;;0.30;0.10;;;19.30;99.90;;;;;;5021828;28;20062;-88
2023/04/30 12:54:05;;;;;;;0.68;0.20;;;19.20;99.90;;;;;;5006977;28;20033;-90
2023/04/30 12:56:31;;;;;;;1.75;0.30;;;18.90;99.90;;;;;;5042403;28;20036;-89
2023/04/30 12:58:57;;;;;;;0.50;0.20;;;18.90;99.90;;;;;;5043040;28;20047;-89